Time;durP1;ratioP1;P1;durP2;ratioP2;P2;SDS_P1;SDS_P2;PMS_P1;PMS_P2;Temp;Humidity;BMP_temperature;BMP_pressure;BME280_temperature;BME280_humidity;BME280_pressure;Samples;Min_cycle;Max_cycle;Signal;HPM_P1;HPM_P2
2021/08/07 00:00:53;;;;;;;7.90;3.65;;;17.10;91.90;;;;;;5098343;28;20032;-70
2021/08/07 00:03:19;;;;;;;7.53;3.75;;;17.10;91.90;;;;;;5099629;28;20036;-70
2021/08/07 00:05:46;;;;;;;8.35;3.53;;;17.10;92.00;;;;;;5100277;28;20035;-70
2021/08/07 00:08:12;;;;;;;8.98;3.58;;;17.10;91.80;;;;;;5099296;28;20102;-70
2021/08/07 00:10:37;;;;;;;6.63;3.42;;;17.10;91.60;;;;;;5098841;28;20114;-70
2021/08/07 00:13:04;;;;;;;12.05;3.70;;;17.10;91.60;;;;;;5099139;28;20123;-71
2021/08/07 00:15:30;;;;;;;8.80;3.40;;;17.00;91.50;;;;;;5098590;28;20125;-71
2021/08/07 00:17:56;;;;;;;10.45;3.17;;;17.00;91.60;;;;;;5099725;28;20395;-71
2021/08/07 00:20:22;;;;;;;5.70;2.95;;;17.00;91.60;;;;;;5098927;28;20027;-71
2021/08/07 00:22:48;;;;;;;9.13;3.55;;;17.00;91.60;;;;;;5099151;28;20472;-71
2021/08/07 00:25:14;;;;;;;7.47;3.38;;;16.90;91.70;;;;;;5080623;28;20074;-71
2021/08/07 00:27:40;;;;;;;8.57;3.10;;;16.90;91.80;;;;;;5099876;28;20051;-71
2021/08/07 00:30:08;;;;;;;8.93;3.30;;;16.90;91.80;;;;;;5098937;28;20047;-70
2021/08/07 00:32:34;;;;;;;6.35;3.08;;;17.00;91.90;;;;;;5098381;28;20121;-70
2021/08/07 00:34:59;;;;;;;8.30;3.30;;;17.00;91.80;;;;;;5097970;28;20040;-70
2021/08/07 00:37:26;;;;;;;9.13;3.72;;;17.00;91.80;;;;;;5099351;28;20031;-71
2021/08/07 00:39:52;;;;;;;8.55;3.17;;;17.00;92.00;;;;;;5098464;28;20045;-71
2021/08/07 00:42:18;;;;;;;9.82;3.92;;;16.90;91.80;;;;;;5098651;28;20044;-70
2021/08/07 00:44:44;;;;;;;12.38;3.60;;;16.90;91.90;;;;;;5098620;28;20035;-70
2021/08/07 00:47:10;;;;;;;8.25;3.35;;;16.90;91.90;;;;;;5080687;28;20047;-70
2021/08/07 00:49:36;;;;;;;10.13;3.83;;;16.90;92.00;;;;;;5097854;28;20050;-70
2021/08/07 00:52:02;;;;;;;7.60;3.42;;;16.90;92.20;;;;;;5097655;28;20126;-70
2021/08/07 00:54:28;;;;;;;8.13;3.38;;;17.00;92.30;;;;;;5097877;28;20119;-71
2021/08/07 00:56:54;;;;;;;8.02;3.20;;;17.10;92.10;;;;;;5098482;28;20174;-70
2021/08/07 00:59:20;;;;;;;9.32;3.42;;;17.10;91.80;;;;;;5098226;28;20044;-70
2021/08/07 01:01:54;;;;;;;8.73;3.22;;;17.10;91.80;;;;;;5098729;28;20059;-70
2021/08/07 01:04:27;;;;;;;7.55;3.58;;;17.10;91.90;;;;;;5098656;28;20027;-70
2021/08/07 01:07:16;;;;;;;10.38;3.97;;;17.00;92.00;;;;;;5098363;28;20391;-70
2021/08/07 01:09:48;;;;;;;11.27;3.85;;;16.90;92.00;;;;;;5097509;28;20062;-70
2021/08/07 01:12:53;;;;;;;9.20;3.50;;;16.80;92.20;;;;;;5097750;28;20162;-71
2021/08/07 01:15:25;;;;;;;6.28;2.95;;;16.80;92.10;;;;;;5081456;28;20511;-71
2021/08/07 01:17:54;;;;;;;8.77;3.60;;;16.80;92.70;;;;;;5097694;28;20048;-71
2021/08/07 01:20:32;;;;;;;12.10;3.53;;;16.90;92.70;;;;;;5097066;28;20126;-70
2021/08/07 01:23:22;;;;;;;13.82;4.38;;;17.00;92.50;;;;;;5091739;28;20032;-70
2021/08/07 01:26:08;;;;;;;7.50;3.60;;;17.00;92.30;;;;;;5086352;28;20507;-72
2021/08/07 01:28:38;;;;;;;7.45;3.78;;;17.00;92.40;;;;;;5097645;28;20455;-71
2021/08/07 01:31:05;;;;;;;5.50;3.35;;;16.90;92.50;;;;;;5091354;28;20031;-71
2021/08/07 01:33:33;;;;;;;7.70;3.50;;;16.90;92.60;;;;;;5097509;28;20164;-72
2021/08/07 01:35:58;;;;;;;6.65;3.42;;;16.90;92.90;;;;;;5098157;28;20036;-71
2021/08/07 01:38:25;;;;;;;5.18;3.50;;;16.90;92.80;;;;;;5079297;28;20092;-70
2021/08/07 01:40:51;;;;;;;9.60;4.05;;;16.90;92.80;;;;;;5078434;28;20189;-71
2021/08/07 01:43:17;;;;;;;7.80;3.72;;;16.90;92.70;;;;;;5097922;28;20915;-71
2021/08/07 01:45:45;;;;;;;9.52;4.13;;;16.90;92.70;;;;;;5098673;28;20052;-71
2021/08/07 01:48:28;;;;;;;7.03;3.88;;;16.90;93.00;;;;;;5095355;28;20043;-72
2021/08/07 01:51:11;;;;;;;12.93;3.60;;;17.00;92.80;;;;;;5096849;28;20075;-72
2021/08/07 01:53:37;;;;;;;6.78;4.25;;;16.90;92.80;;;;;;5096378;28;20040;-71
2021/08/07 01:56:07;;;;;;;9.35;4.20;;;16.90;92.90;;;;;;5097342;28;20485;-71
2021/08/07 01:58:56;;;;;;;10.32;3.72;;;16.90;93.00;;;;;;5096037;28;20036;-72
2021/08/07 02:01:25;;;;;;;5.53;3.42;;;16.90;93.10;;;;;;5098343;28;20028;-71
2021/08/07 02:03:53;;;;;;;6.43;3.53;;;16.90;93.10;;;;;;5097638;28;20051;-72
2021/08/07 02:06:21;;;;;;;6.80;3.53;;;16.90;93.00;;;;;;5078380;28;20109;-71
2021/08/07 02:08:47;;;;;;;9.90;4.00;;;17.00;93.20;;;;;;5098128;28;20548;-72
2021/08/07 02:11:15;;;;;;;7.90;3.30;;;17.00;93.00;;;;;;5096630;28;20495;-72
2021/08/07 02:13:41;;;;;;;8.00;3.47;;;17.00;92.90;;;;;;5096633;28;20827;-72
2021/08/07 02:16:07;;;;;;;6.68;3.67;;;16.90;93.00;;;;;;5096828;28;20036;-71
2021/08/07 02:18:33;;;;;;;7.53;3.10;;;17.00;92.90;;;;;;5095879;28;20142;-73
2021/08/07 02:21:00;;;;;;;8.43;2.60;;;17.00;92.60;;;;;;5096470;28;20055;-72
2021/08/07 02:23:27;;;;;;;6.63;2.83;;;17.00;92.40;;;;;;5096533;28;20055;-71
2021/08/07 02:25:57;;;;;;;6.68;3.22;;;17.00;92.30;;;;;;5079005;28;20036;-71
2021/08/07 02:28:24;;;;;;;9.52;2.58;;;17.10;92.20;;;;;;5096338;28;20114;-71
2021/08/07 02:30:51;;;;;;;8.10;2.80;;;17.20;92.10;;;;;;5077579;28;20032;-71
2021/08/07 02:33:20;;;;;;;6.05;2.38;;;17.20;91.80;;;;;;5095004;28;20036;-70
2021/08/07 02:35:46;;;;;;;10.63;3.08;;;17.10;91.60;;;;;;5096814;28;20032;-71
2021/08/07 02:38:14;;;;;;;8.45;2.80;;;17.10;91.60;;;;;;5077606;28;20177;-71
2021/08/07 02:40:41;;;;;;;6.13;2.88;;;17.10;91.50;;;;;;5097097;28;20028;-72
2021/08/07 02:43:08;;;;;;;6.13;1.88;;;17.00;91.60;;;;;;5097640;28;20462;-72
2021/08/07 02:45:35;;;;;;;9.90;3.15;;;17.00;91.40;;;;;;5097308;28;20032;-72
2021/08/07 02:48:02;;;;;;;7.85;2.30;;;16.90;91.30;;;;;;5095873;28;20043;-71
2021/08/07 02:50:27;;;;;;;5.60;2.50;;;16.90;91.20;;;;;;5096087;28;20040;-71
2021/08/07 02:52:56;;;;;;;6.43;2.15;;;17.00;91.30;;;;;;5064935;28;20036;-71
2021/08/07 02:55:23;;;;;;;11.45;2.35;;;16.90;91.20;;;;;;5082024;28;20066;-71
2021/08/07 02:57:53;;;;;;;8.02;2.60;;;16.90;91.00;;;;;;5100423;28;20032;-71
2021/08/07 03:00:21;;;;;;;3.40;2.15;;;17.00;90.80;;;;;;5099949;28;20035;-71
2021/08/07 03:02:47;;;;;;;4.95;2.45;;;17.10;91.50;;;;;;5099998;28;20059;-70
2021/08/07 03:05:13;;;;;;;6.57;2.30;;;17.20;91.70;;;;;;5101820;28;20228;-71
2021/08/07 03:07:39;;;;;;;7.47;2.05;;;17.40;91.60;;;;;;5099241;28;20047;-70
2021/08/07 03:10:08;;;;;;;7.70;2.50;;;17.70;90.70;;;;;;5099188;28;20413;-72
2021/08/07 03:12:35;;;;;;;3.60;1.92;;;17.70;89.80;;;;;;5101569;28;20511;-71
2021/08/07 03:15:02;;;;;;;4.93;1.63;;;17.80;89.50;;;;;;5100611;28;20067;-72
2021/08/07 03:17:28;;;;;;;4.53;1.85;;;17.70;89.00;;;;;;5099582;28;20032;-72
2021/08/07 03:19:53;;;;;;;4.47;2.22;;;17.70;88.80;;;;;;5081740;28;20043;-72
2021/08/07 03:22:19;;;;;;;3.10;1.70;;;17.60;90.10;;;;;;5100489;28;20494;-72
2021/08/07 03:24:45;;;;;;;3.22;2.17;;;17.60;90.40;;;;;;5101397;28;20317;-73
2021/08/07 03:27:11;;;;;;;5.93;1.95;;;17.80;90.80;;;;;;5080470;28;20036;-71
2021/08/07 03:29:37;;;;;;;4.55;1.98;;;18.00;89.90;;;;;;5098849;28;20089;-72
2021/08/07 03:32:15;;;;;;;6.40;2.10;;;18.10;89.60;;;;;;5099757;28;20861;-72
2021/08/07 03:34:41;;;;;;;3.63;1.80;;;18.20;88.00;;;;;;5100308;28;20404;-71
2021/08/07 03:37:08;;;;;;;4.72;2.03;;;18.20;88.80;;;;;;5080665;28;20040;-72
2021/08/07 03:39:34;;;;;;;4.32;1.40;;;18.10;88.60;;;;;;5100071;28;20093;-73
2021/08/07 03:41:59;;;;;;;6.47;1.67;;;18.10;86.90;;;;;;5100142;28;20039;-73
2021/08/07 03:44:25;;;;;;;3.45;1.80;;;18.10;86.50;;;;;;5083613;28;20024;-73
2021/08/07 03:46:52;;;;;;;5.55;2.15;;;18.10;87.40;;;;;;5098226;28;20483;-73
2021/08/07 03:49:18;;;;;;;5.22;1.77;;;18.00;86.90;;;;;;5093922;28;20139;-72
2021/08/07 03:51:44;;;;;;;3.55;1.75;;;17.80;86.30;;;;;;5078813;28;20131;-72
2021/08/07 03:54:10;;;;;;;5.45;1.70;;;17.70;88.40;;;;;;5079872;28;20390;-72
2021/08/07 03:56:36;;;;;;;5.88;1.80;;;17.60;88.10;;;;;;5076965;28;20115;-72
2021/08/07 03:59:02;;;;;;;6.32;2.50;;;17.50;87.80;;;;;;5078485;28;20039;-71
2021/08/07 04:01:28;;;;;;;8.20;1.98;;;17.30;87.50;;;;;;5077713;28;20047;-64
2021/08/07 04:03:53;;;;;;;5.90;1.50;;;17.20;88.00;;;;;;5079630;28;20043;-63
2021/08/07 04:06:19;;;;;;;5.68;1.52;;;17.10;89.50;;;;;;5094232;28;20488;-63
2021/08/07 04:08:45;;;;;;;3.45;1.88;;;17.00;89.20;;;;;;5079316;28;20419;-63
2021/08/07 04:11:11;;;;;;;5.70;2.33;;;17.00;90.40;;;;;;5077610;28;20075;-64
2021/08/07 04:13:36;;;;;;;5.93;2.22;;;17.10;90.40;;;;;;5078577;28;20166;-64
2021/08/07 04:16:03;;;;;;;8.45;1.92;;;17.10;89.60;;;;;;5078985;28;20036;-63
2021/08/07 04:18:29;;;;;;;5.38;1.60;;;17.00;89.00;;;;;;5077170;28;20032;-63
2021/08/07 04:20:55;;;;;;;8.05;2.15;;;17.00;89.00;;;;;;5079012;28;20094;-63
2021/08/07 04:23:21;;;;;;;9.80;2.42;;;17.00;88.80;;;;;;5079576;28;20044;-63
2021/08/07 04:25:47;;;;;;;5.30;1.50;;;17.00;89.50;;;;;;5078081;28;20141;-63
2021/08/07 04:28:12;;;;;;;4.63;2.20;;;17.10;90.20;;;;;;5077805;28;20116;-63
2021/08/07 04:30:38;;;;;;;6.70;1.67;;;17.10;89.20;;;;;;5078794;28;20059;-63
2021/08/07 04:33:04;;;;;;;8.20;2.20;;;17.10;89.10;;;;;;5078958;28;20058;-64
2021/08/07 04:35:30;;;;;;;5.18;1.80;;;17.00;88.50;;;;;;5078936;28;20404;-63
2021/08/07 04:37:58;;;;;;;4.75;1.88;;;17.00;88.50;;;;;;5075409;28;20082;-63
2021/08/07 04:40:28;;;;;;;5.32;1.40;;;17.10;89.40;;;;;;5078808;28;20028;-63
2021/08/07 04:42:54;;;;;;;5.53;1.85;;;17.10;89.40;;;;;;5079362;28;20039;-63
2021/08/07 04:45:20;;;;;;;10.27;1.95;;;16.90;88.80;;;;;;5078155;28;20037;-63
2021/08/07 04:47:58;;;;;;;6.75;2.05;;;16.80;88.90;;;;;;5078391;28;20482;-63
2021/08/07 04:50:26;;;;;;;9.05;2.20;;;16.70;88.80;;;;;;5090759;28;20059;-63
2021/08/07 04:52:54;;;;;;;8.93;1.95;;;16.50;89.70;;;;;;5098392;28;20568;-63
2021/08/07 04:55:20;;;;;;;4.75;1.80;;;16.40;90.00;;;;;;5098508;28;20058;-63
2021/08/07 04:57:46;;;;;;;4.57;1.95;;;16.20;90.20;;;;;;5097431;28;20034;-63
2021/08/07 05:00:13;;;;;;;9.60;2.72;;;16.10;90.40;;;;;;5080500;28;20058;-63
2021/08/07 05:02:40;;;;;;;3.85;1.98;;;16.10;90.60;;;;;;5099249;28;20042;-64
2021/08/07 05:05:06;;;;;;;5.57;2.22;;;16.10;90.70;;;;;;5098100;28;20032;-64
2021/08/07 05:07:32;;;;;;;6.53;2.20;;;16.10;90.60;;;;;;5080226;28;20036;-63
2021/08/07 05:10:00;;;;;;;10.10;2.63;;;16.10;90.50;;;;;;5096834;28;20503;-63
2021/08/07 05:12:29;;;;;;;7.22;2.25;;;16.00;90.60;;;;;;5098046;28;20062;-62
2021/08/07 05:14:56;;;;;;;6.80;2.00;;;16.00;90.60;;;;;;5097040;28;20039;-61
2021/08/07 05:17:26;;;;;;;6.82;2.00;;;15.90;90.70;;;;;;5096786;28;20216;-61
2021/08/07 05:19:52;;;;;;;6.78;2.20;;;15.80;90.80;;;;;;5086342;28;20044;-62
2021/08/07 05:22:20;;;;;;;6.88;2.60;;;15.80;90.90;;;;;;5100383;28;20036;-61
2021/08/07 05:24:46;;;;;;;8.77;2.45;;;15.70;91.00;;;;;;5097519;28;20111;-61
2021/08/07 05:27:12;;;;;;;10.63;2.63;;;15.70;91.00;;;;;;5079871;28;20054;-61
2021/08/07 05:29:38;;;;;;;7.13;2.65;;;15.80;91.10;;;;;;5096556;28;20122;-62
2021/08/07 05:32:04;;;;;;;7.82;2.72;;;15.80;91.20;;;;;;5080450;28;20122;-61
2021/08/07 05:34:29;;;;;;;8.60;3.10;;;15.80;91.20;;;;;;5079648;28;20035;-61
2021/08/07 05:36:55;;;;;;;7.00;3.05;;;15.80;91.20;;;;;;5098492;28;20071;-62
2021/08/07 05:39:21;;;;;;;8.02;2.67;;;15.80;91.20;;;;;;5097771;28;20034;-62
2021/08/07 05:41:47;;;;;;;8.13;2.78;;;15.90;91.20;;;;;;5081874;28;20036;-62
2021/08/07 05:44:13;;;;;;;6.72;2.42;;;16.00;91.20;;;;;;5096994;28;20101;-62
2021/08/07 05:46:39;;;;;;;13.18;2.92;;;16.00;91.10;;;;;;5079364;28;20036;-63
2021/08/07 05:49:05;;;;;;;9.23;2.53;;;16.10;91.40;;;;;;5098213;28;20043;-63
2021/08/07 05:51:34;;;;;;;9.32;2.90;;;16.20;91.60;;;;;;5098272;28;20044;-61
2021/08/07 05:54:04;;;;;;;10.48;2.65;;;16.30;91.30;;;;;;5098127;28;20043;-61
2021/08/07 05:56:30;;;;;;;7.85;2.80;;;16.40;91.00;;;;;;5097040;28;20446;-66
2021/08/07 05:58:57;;;;;;;9.77;2.75;;;16.60;91.10;;;;;;5098520;28;20039;-67
2021/08/07 06:01:24;;;;;;;8.25;2.35;;;16.80;90.70;;;;;;5098560;28;20032;-67
2021/08/07 06:03:49;;;;;;;10.38;2.75;;;16.90;90.50;;;;;;5097589;28;20115;-68
2021/08/07 06:06:15;;;;;;;7.53;2.88;;;17.10;91.00;;;;;;5098008;28;20119;-68
2021/08/07 06:08:41;;;;;;;8.82;2.53;;;17.20;90.50;;;;;;5098303;28;20067;-68
2021/08/07 06:11:07;;;;;;;7.80;2.47;;;17.20;90.00;;;;;;5097262;28;20042;-70
2021/08/07 06:13:33;;;;;;;11.95;2.83;;;17.30;90.90;;;;;;5080404;28;20756;-66
2021/08/07 06:15:58;;;;;;;9.82;2.28;;;17.60;90.70;;;;;;5096597;28;20050;-66
2021/08/07 06:18:24;;;;;;;11.13;2.70;;;17.80;90.60;;;;;;5096471;28;20077;-65
2021/08/07 06:20:50;;;;;;;10.10;2.92;;;18.10;90.30;;;;;;5079569;28;20040;-66
2021/08/07 06:23:17;;;;;;;7.95;2.42;;;18.40;88.80;;;;;;5099014;28;20035;-65
2021/08/07 06:25:43;;;;;;;7.50;2.28;;;18.60;88.00;;;;;;5096155;28;20040;-65
2021/08/07 06:28:09;;;;;;;8.38;2.78;;;18.60;86.50;;;;;;5096858;28;20483;-66
2021/08/07 06:30:37;;;;;;;9.63;2.95;;;18.80;86.30;;;;;;5096719;28;20036;-65
2021/08/07 06:33:03;;;;;;;8.30;2.35;;;18.90;85.10;;;;;;5097392;28;20039;-65
2021/08/07 06:35:29;;;;;;;5.57;2.20;;;19.00;85.20;;;;;;5096282;28;20411;-64
2021/08/07 06:37:54;;;;;;;11.30;2.85;;;19.10;84.00;;;;;;5097966;28;20040;-64
2021/08/07 06:40:21;;;;;;;6.97;2.10;;;19.20;83.50;;;;;;5097761;28;20040;-63
2021/08/07 06:42:47;;;;;;;9.25;2.28;;;19.10;82.80;;;;;;5098271;28;20070;-64
2021/08/07 06:45:14;;;;;;;11.13;3.38;;;19.10;82.60;;;;;;5096747;28;20505;-64
2021/08/07 06:47:39;;;;;;;6.38;2.30;;;19.10;82.50;;;;;;5096886;28;20047;-65
2021/08/07 06:50:07;;;;;;;10.95;2.10;;;19.10;81.70;;;;;;5096697;28;20058;-64
2021/08/07 06:52:34;;;;;;;6.97;1.73;;;19.00;82.60;;;;;;5097616;28;20111;-65
2021/08/07 06:55:00;;;;;;;9.63;1.88;;;19.00;82.20;;;;;;5095905;28;20484;-66
2021/08/07 06:57:26;;;;;;;8.98;2.10;;;19.20;83.50;;;;;;5076692;28;20059;-66
2021/08/07 06:59:52;;;;;;;7.30;2.47;;;19.50;83.00;;;;;;5095055;28;20032;-66
2021/08/07 07:02:19;;;;;;;7.40;2.00;;;19.80;81.20;;;;;;5095533;28;20044;-64
2021/08/07 07:04:45;;;;;;;8.05;2.10;;;19.90;80.30;;;;;;5096262;28;20039;-65
2021/08/07 07:07:11;;;;;;;6.47;2.08;;;19.90;79.00;;;;;;5095040;28;20063;-65
2021/08/07 07:09:37;;;;;;;4.68;1.50;;;20.00;79.70;;;;;;5097129;28;20066;-65
2021/08/07 07:12:04;;;;;;;14.80;5.40;;;20.20;79.20;;;;;;5096457;28;20062;-64
2021/08/07 07:14:30;;;;;;;13.32;2.60;;;20.30;78.40;;;;;;5097974;28;20043;-67
2021/08/07 07:16:56;;;;;;;20.88;5.40;;;20.20;77.10;;;;;;5095647;28;20047;-69
2021/08/07 07:19:22;;;;;;;28.58;8.10;;;20.20;77.70;;;;;;5095344;28;20123;-69
2021/08/07 07:21:47;;;;;;;8.35;2.05;;;20.30;78.40;;;;;;5095778;28;20510;-67
2021/08/07 07:24:13;;;;;;;11.63;2.53;;;20.40;76.80;;;;;;5096570;28;20039;-68
2021/08/07 07:26:39;;;;;;;10.75;2.95;;;20.20;76.30;;;;;;5077066;28;20043;-67
2021/08/07 07:29:05;;;;;;;7.75;2.83;;;20.10;77.30;;;;;;5094404;28;20050;-68
2021/08/07 07:31:30;;;;;;;8.13;2.60;;;20.00;76.70;;;;;;5097870;28;20119;-67
2021/08/07 07:33:59;;;;;;;4.50;1.83;;;19.80;77.20;;;;;;5075314;28;20079;-68
2021/08/07 07:36:25;;;;;;;6.82;2.30;;;19.60;77.00;;;;;;5095532;28;20150;-68
2021/08/07 07:38:50;;;;;;;8.43;1.95;;;19.60;78.40;;;;;;5099190;28;20081;-67
2021/08/07 07:41:16;;;;;;;9.60;2.22;;;19.70;79.30;;;;;;5099691;28;20132;-66
2021/08/07 07:43:42;;;;;;;3.97;1.55;;;19.90;78.30;;;;;;5100822;28;20042;-67
2021/08/07 07:46:09;;;;;;;6.43;2.05;;;20.10;78.40;;;;;;5079747;28;20108;-67
2021/08/07 07:48:35;;;;;;;5.07;1.77;;;20.30;78.30;;;;;;5100051;28;20116;-67
2021/08/07 07:51:01;;;;;;;10.55;1.85;;;20.50;77.30;;;;;;5100953;28;20047;-67
2021/08/07 07:53:27;;;;;;;6.55;1.95;;;20.60;77.20;;;;;;5098729;28;20050;-66
2021/08/07 07:55:53;;;;;;;5.43;1.63;;;20.60;76.10;;;;;;5099088;28;20108;-67
2021/08/07 07:58:19;;;;;;;10.05;1.90;;;20.50;75.90;;;;;;5100219;28;20047;-67
2021/08/07 08:00:45;;;;;;;7.75;1.73;;;20.60;76.00;;;;;;5099984;28;20039;-69
2021/08/07 08:03:11;;;;;;;5.78;1.50;;;20.90;76.40;;;;;;5100627;28;20119;-66
2021/08/07 08:05:36;;;;;;;10.10;2.47;;;20.90;75.40;;;;;;5099584;28;20126;-66
2021/08/07 08:08:02;;;;;;;8.15;2.20;;;20.90;74.60;;;;;;5099789;28;20042;-66
2021/08/07 08:10:28;;;;;;;6.30;1.50;;;21.00;74.70;;;;;;5099132;28;20031;-66
2021/08/07 08:12:54;;;;;;;11.35;2.75;;;21.10;74.10;;;;;;5100292;28;20032;-66
2021/08/07 08:15:20;;;;;;;4.55;1.70;;;21.10;74.10;;;;;;5099579;28;20156;-65
2021/08/07 08:17:46;;;;;;;6.18;1.70;;;21.20;74.30;;;;;;5100919;28;20036;-66
2021/08/07 08:20:13;;;;;;;6.30;2.20;;;21.20;73.50;;;;;;5100023;28;20039;-63
2021/08/07 08:22:46;;;;;;;7.88;1.90;;;21.40;72.50;;;;;;5098088;28;20068;-63
2021/08/07 08:25:17;;;;;;;7.88;1.80;;;21.50;71.40;;;;;;5054729;28;20044;-62
2021/08/07 08:27:43;;;;;;;4.70;1.55;;;21.60;71.70;;;;;;5100080;28;20085;-62
2021/08/07 08:30:09;;;;;;;5.50;2.05;;;21.70;71.10;;;;;;5080543;28;20050;-62
2021/08/07 08:32:36;;;;;;;6.07;1.63;;;21.50;70.80;;;;;;5099027;28;20032;-63
2021/08/07 08:35:02;;;;;;;7.32;1.60;;;21.40;71.40;;;;;;5098607;28;20024;-63
2021/08/07 08:37:28;;;;;;;6.22;1.73;;;21.50;71.70;;;;;;5099563;28;20591;-64
2021/08/07 08:39:54;;;;;;;9.80;1.63;;;21.60;71.10;;;;;;5098559;28;20058;-63
2021/08/07 08:42:21;;;;;;;7.57;1.50;;;21.80;70.20;;;;;;5100113;28;20039;-65
2021/08/07 08:44:47;;;;;;;4.30;1.30;;;21.90;69.80;;;;;;5099648;28;20039;-62
2021/08/07 08:47:14;;;;;;;5.03;1.20;;;22.10;69.40;;;;;;5099377;28;20096;-61
2021/08/07 08:49:40;;;;;;;5.03;1.30;;;22.20;68.50;;;;;;5098145;28;20106;-59
2021/08/07 08:52:07;;;;;;;5.95;2.00;;;22.30;68.60;;;;;;5097842;28;20048;-59
2021/08/07 08:54:35;;;;;;;8.00;1.70;;;22.60;67.90;;;;;;5099075;28;20403;-58
2021/08/07 08:57:00;;;;;;;6.53;1.65;;;22.80;66.90;;;;;;5099653;28;20047;-59
2021/08/07 08:59:26;;;;;;;4.82;1.38;;;22.90;65.90;;;;;;5099577;28;20031;-59
2021/08/07 09:01:52;;;;;;;8.90;1.85;;;22.80;65.20;;;;;;5098314;28;20036;-59
2021/08/07 09:04:18;;;;;;;7.38;1.88;;;22.90;65.50;;;;;;5099726;28;20170;-59
2021/08/07 09:06:44;;;;;;;6.82;1.75;;;23.00;64.50;;;;;;5100205;28;20038;-59
2021/08/07 09:09:12;;;;;;;5.38;1.55;;;23.10;64.30;;;;;;5097655;28;20035;-60
2021/08/07 09:11:53;;;;;;;6.30;2.00;;;23.20;63.60;;;;;;5094238;28;20612;-60
2021/08/07 09:14:28;;;;;;;6.53;1.25;;;22.80;62.20;;;;;;5098347;28;20035;-60
2021/08/07 09:19:49;;;;;;;5.68;1.40;;;22.40;62.80;;;;;;5097739;28;20036;-59
2021/08/07 09:22:29;;;;;;;4.55;1.27;;;22.40;63.20;;;;;;5097312;28;20105;-64
2021/08/07 09:25:10;;;;;;;5.55;1.83;;;22.50;63.90;;;;;;5077764;28;20047;-66
2021/08/07 09:27:44;;;;;;;6.47;1.30;;;22.60;62.60;;;;;;5085137;28;20074;-66
2021/08/07 09:30:13;;;;;;;6.68;1.70;;;22.40;62.60;;;;;;5097964;28;20031;-65
2021/08/07 09:32:50;;;;;;;4.18;1.10;;;22.30;63.30;;;;;;5096245;28;20043;-63
2021/08/07 09:35:20;;;;;;;3.08;0.93;;;22.30;63.50;;;;;;5079878;28;20056;-63
2021/08/07 09:37:46;;;;;;;13.07;9.25;;;22.30;62.80;;;;;;5098262;28;20368;-64
2021/08/07 09:40:13;;;;;;;12.65;7.97;;;22.30;62.20;;;;;;5096893;28;20039;-65
2021/08/07 09:42:53;;;;;;;3.03;0.80;;;22.50;62.00;;;;;;5097205;28;20538;-65
2021/08/07 09:45:24;;;;;;;5.10;0.95;;;22.70;61.30;;;;;;5096384;28;20040;-63
2021/08/07 09:47:59;;;;;;;3.55;1.10;;;22.50;60.60;;;;;;5097548;28;20044;-67
2021/08/07 09:50:27;;;;;;;3.80;1.42;;;22.40;61.70;;;;;;5073378;28;20056;-63
2021/08/07 09:52:54;;;;;;;4.10;1.15;;;22.50;62.40;;;;;;5077727;28;20037;-63
2021/08/07 09:55:21;;;;;;;4.88;1.10;;;22.40;61.30;;;;;;5093580;28;20047;-64
2021/08/07 09:57:58;;;;;;;5.40;1.13;;;22.30;61.00;;;;;;5075769;28;20029;-66
2021/08/07 10:00:57;;;;;;;3.30;0.95;;;22.30;61.10;;;;;;5064425;28;20067;-65
2021/08/07 10:03:29;;;;;;;3.08;0.82;;;22.20;62.50;;;;;;5062260;28;20057;-65
2021/08/07 10:05:55;;;;;;;1.58;0.68;;;22.40;61.90;;;;;;5077149;28;20032;-64
2021/08/07 10:08:22;;;;;;;4.43;0.80;;;22.50;61.00;;;;;;5077592;28;20104;-62
2021/08/07 10:10:50;;;;;;;3.33;0.80;;;22.50;61.80;;;;;;5077489;28;20032;-63
2021/08/07 10:13:18;;;;;;;2.88;0.95;;;22.80;61.70;;;;;;5076277;28;20109;-63
2021/08/07 10:15:44;;;;;;;1.75;0.82;;;23.00;61.50;;;;;;5076811;28;20044;-63
2021/08/07 10:18:12;;;;;;;1.70;0.80;;;23.30;61.40;;;;;;5076940;28;20032;-63
2021/08/07 10:20:39;;;;;;;3.78;1.15;;;23.50;60.20;;;;;;5076912;28;20046;-63
2021/08/07 10:23:06;;;;;;;2.90;0.88;;;23.60;60.20;;;;;;5077147;28;20040;-63
2021/08/07 10:25:33;;;;;;;4.18;0.80;;;23.80;60.00;;;;;;5076197;28;20116;-63
2021/08/07 10:28:01;;;;;;;2.83;0.75;;;24.00;59.50;;;;;;5076916;28;20036;-63
2021/08/07 10:30:31;;;;;;;1.80;0.50;;;24.10;59.10;;;;;;5077660;28;20048;-63
2021/08/07 10:32:58;;;;;;;3.53;0.85;;;24.20;58.60;;;;;;5077794;28;20040;-63
2021/08/07 10:35:26;;;;;;;2.90;0.70;;;24.00;57.20;;;;;;5076381;28;20403;-65
2021/08/07 10:37:54;;;;;;;2.22;0.80;;;23.70;58.20;;;;;;5076084;28;20100;-63
2021/08/07 10:40:20;;;;;;;1.48;0.70;;;23.80;59.70;;;;;;5075873;28;20025;-63
2021/08/07 10:42:48;;;;;;;2.30;0.50;;;23.80;58.70;;;;;;5076939;28;20081;-63
2021/08/07 10:45:15;;;;;;;4.07;0.88;;;23.70;58.40;;;;;;5076875;28;20089;-63
2021/08/07 10:47:46;;;;;;;2.00;0.70;;;23.50;58.90;;;;;;5075953;28;20518;-63
2021/08/07 10:50:24;;;;;;;2.95;0.90;;;23.50;59.20;;;;;;5087655;28;20047;-63
2021/08/07 10:52:54;;;;;;;2.35;0.88;;;23.60;58.80;;;;;;5097617;28;20036;-63
2021/08/07 10:55:45;;;;;;;3.90;0.77;;;23.50;58.70;;;;;;5096154;28;20043;-63
2021/08/07 10:58:41;;;;;;;4.35;1.55;;;23.40;58.90;;;;;;5096378;28;20036;-63
2021/08/07 11:01:25;;;;;;;5.25;1.20;;;23.30;58.40;;;;;;5096304;28;20046;-63
2021/08/07 11:04:00;;;;;;;4.18;2.13;;;23.10;58.90;;;;;;5078801;28;20039;-63
2021/08/07 11:06:44;;;;;;;4.80;0.95;;;23.10;59.50;;;;;;5095099;28;20075;-63
2021/08/07 11:09:31;;;;;;;3.40;0.77;;;23.20;59.30;;;;;;5097044;28;20498;-63
2021/08/07 11:12:06;;;;;;;2.55;0.60;;;23.30;58.60;;;;;;5098128;28;20043;-63
2021/08/07 11:14:35;;;;;;;3.38;0.70;;;23.00;56.80;;;;;;5100107;28;20498;-63
2021/08/07 11:17:04;;;;;;;5.20;0.70;;;22.80;58.70;;;;;;5099974;28;20036;-62
2021/08/07 11:20:04;;;;;;;2.65;0.60;;;22.90;59.80;;;;;;5080807;28;20135;-63
2021/08/07 11:22:34;;;;;;;2.35;0.50;;;23.10;59.90;;;;;;5100729;28;20096;-63
2021/08/07 11:25:22;;;;;;;3.72;0.60;;;23.20;59.10;;;;;;5099802;28;20114;-63
2021/08/07 11:30:29;;;;;;;2.25;0.57;;;23.30;58.50;;;;;;5100867;28;20064;-63
2021/08/07 11:32:57;;;;;;;0.80;0.43;;;23.10;57.10;;;;;;5100002;28;20036;-63
2021/08/07 11:35:36;;;;;;;3.10;0.90;;;22.70;57.90;;;;;;5099765;28;20064;-63
2021/08/07 11:38:20;;;;;;;4.00;1.10;;;22.70;58.60;;;;;;5100207;28;20529;-63
2021/08/07 11:41:05;;;;;;;2.33;1.00;;;22.80;59.40;;;;;;5100249;28;20036;-63
2021/08/07 11:43:37;;;;;;;3.33;1.10;;;22.80;59.60;;;;;;5099687;28;20116;-63
2021/08/07 11:46:05;;;;;;;2.78;0.98;;;22.90;59.00;;;;;;5099028;28;20048;-63
2021/08/07 11:48:36;;;;;;;1.98;0.60;;;22.80;58.80;;;;;;5082119;28;20119;-63
2021/08/07 11:51:09;;;;;;;3.25;0.80;;;22.60;58.50;;;;;;5101162;28;20046;-63
2021/08/07 11:53:39;;;;;;;1.85;0.75;;;22.70;60.70;;;;;;5098803;28;20043;-63
2021/08/07 11:56:12;;;;;;;1.40;0.60;;;22.90;60.60;;;;;;5083390;28;20043;-63
2021/08/07 11:58:56;;;;;;;4.75;0.88;;;23.20;60.40;;;;;;5099447;28;20062;-63
2021/08/07 12:01:27;;;;;;;3.58;0.70;;;23.50;58.70;;;;;;5100825;28;20054;-63
2021/08/07 12:03:55;;;;;;;2.35;0.88;;;23.40;57.20;;;;;;5099938;28;20520;-63
2021/08/07 12:06:31;;;;;;;3.90;1.13;;;23.30;58.30;;;;;;5098627;28;20569;-63
2021/08/07 12:08:58;;;;;;;3.40;1.30;;;23.20;58.20;;;;;;5099952;28;20072;-63
2021/08/07 12:11:24;;;;;;;1.63;0.70;;;23.20;59.60;;;;;;5100802;28;20047;-63
2021/08/07 12:13:56;;;;;;;4.38;0.70;;;23.20;58.70;;;;;;5098799;28;20028;-62
2021/08/07 12:16:30;;;;;;;3.07;0.80;;;23.30;58.10;;;;;;5099321;28;20119;-63
2021/08/07 12:18:59;;;;;;;1.83;0.70;;;23.40;59.10;;;;;;5099485;28;20119;-63
2021/08/07 12:21:36;;;;;;;2.78;0.63;;;23.60;59.40;;;;;;5099597;28;20904;-63
2021/08/07 12:24:07;;;;;;;1.48;0.82;;;23.70;58.50;;;;;;5099050;28;20028;-63
2021/08/07 12:26:57;;;;;;;3.17;0.88;;;23.90;59.10;;;;;;5098016;28;20035;-63
2021/08/07 12:29:31;;;;;;;4.63;0.95;;;24.00;56.50;;;;;;5098988;28;20039;-63
2021/08/07 12:31:59;;;;;;;3.42;0.70;;;23.90;55.90;;;;;;5100999;28;20047;-63
2021/08/07 12:34:30;;;;;;;2.10;0.73;;;23.80;54.30;;;;;;5090669;28;20032;-63
2021/08/07 12:37:05;;;;;;;2.17;0.73;;;23.60;55.60;;;;;;5098408;28;20090;-63
2021/08/07 12:39:50;;;;;;;2.40;0.77;;;23.60;54.70;;;;;;5080157;28;20063;-63
2021/08/07 12:42:19;;;;;;;3.75;0.98;;;23.60;56.40;;;;;;5099384;28;20036;-63
2021/08/07 12:45:02;;;;;;;2.47;0.88;;;23.80;55.50;;;;;;5099260;28;20039;-63
2021/08/07 12:47:29;;;;;;;2.70;0.80;;;23.80;55.30;;;;;;5098214;28;20040;-63
2021/08/07 12:49:55;;;;;;;3.53;0.60;;;23.90;56.70;;;;;;5099103;28;20048;-63
2021/08/07 12:52:21;;;;;;;4.00;0.90;;;23.90;54.60;;;;;;5081880;28;20389;-63
2021/08/07 12:55:08;;;;;;;2.05;0.52;;;23.80;54.70;;;;;;5097717;28;20470;-63
2021/08/07 12:57:34;;;;;;;2.30;0.63;;;23.70;55.00;;;;;;5098175;28;20047;-63
2021/08/07 13:00:00;;;;;;;1.80;0.77;;;23.80;55.60;;;;;;5098119;28;20032;-63